createdAt,value
2022-10-18T00:00:38.721Z,12.20
2022-10-18T00:03:10.149Z,12.10
2022-10-18T00:05:41.368Z,12.10
2022-10-18T00:08:13.130Z,12.10
2022-10-18T00:10:44.422Z,12.10
2022-10-18T00:13:15.872Z,12.10
2022-10-18T00:15:52.023Z,12.00
2022-10-18T00:18:23.522Z,12.00
2022-10-18T00:21:02.212Z,12.00
2022-10-18T00:23:34.618Z,11.90
2022-10-18T00:26:07.999Z,11.90
2022-10-18T00:28:39.973Z,11.80
2022-10-18T00:31:16.356Z,11.70
2022-10-18T00:33:50.529Z,11.70
2022-10-18T00:36:22.073Z,11.70
2022-10-18T00:38:53.926Z,11.70
2022-10-18T00:41:27.637Z,11.80
2022-10-18T00:44:01.727Z,11.90
2022-10-18T00:46:34.749Z,12.00
2022-10-18T00:49:08.965Z,12.00
2022-10-18T00:51:44.395Z,12.00
2022-10-18T00:54:17.594Z,12.10
2022-10-18T00:56:49.333Z,12.10
2022-10-18T00:59:21.705Z,12.00
2022-10-18T01:01:53.326Z,11.90
2022-10-18T01:04:24.854Z,12.00
2022-10-18T01:06:59.134Z,11.90
2022-10-18T01:09:33.850Z,11.80
2022-10-18T01:12:12.929Z,11.90
2022-10-18T01:14:48.536Z,12.00
2022-10-18T01:17:22.810Z,12.00
2022-10-18T01:20:35.067Z,12.00
2022-10-18T01:23:10.745Z,12.10
2022-10-18T01:25:47.680Z,12.10
2022-10-18T01:28:29.369Z,12.10
2022-10-18T01:31:02.299Z,12.10
2022-10-18T01:33:38.685Z,12.10
2022-10-18T01:36:13.678Z,12.10
2022-10-18T01:38:47.736Z,12.10
2022-10-18T01:41:22.784Z,12.10
2022-10-18T01:43:57.172Z,12.00
2022-10-18T01:46:29.147Z,12.00
2022-10-18T01:49:01.142Z,11.90
2022-10-18T01:51:35.106Z,11.90
2022-10-18T01:54:06.639Z,11.80
2022-10-18T01:56:44.564Z,11.80
2022-10-18T01:59:36.715Z,11.70
2022-10-18T02:02:12.869Z,11.70
2022-10-18T02:04:48.011Z,11.70
2022-10-18T02:07:23.793Z,11.70
2022-10-18T02:09:59.293Z,11.70
2022-10-18T02:12:33.482Z,11.70
2022-10-18T02:15:09.851Z,11.80
2022-10-18T02:17:41.921Z,11.90
2022-10-18T02:20:16.171Z,11.90
2022-10-18T02:22:50.201Z,11.90
2022-10-18T02:25:24.777Z,12.00
2022-10-18T02:27:57.812Z,12.00
2022-10-18T02:30:32.514Z,12.10
2022-10-18T02:33:07.194Z,12.10
2022-10-18T02:35:41.993Z,12.10
2022-10-18T02:38:16.054Z,12.10
2022-10-18T02:40:47.296Z,12.10
2022-10-18T02:43:18.505Z,12.10
2022-10-18T02:45:49.811Z,12.20
2022-10-18T02:48:21.093Z,12.20
2022-10-18T02:50:52.283Z,12.20
2022-10-18T02:53:23.585Z,12.20
2022-10-18T02:55:54.908Z,12.20
2022-10-18T02:58:26.229Z,12.20
2022-10-18T03:00:57.467Z,12.30
2022-10-18T03:03:28.795Z,12.30
2022-10-18T03:06:00.145Z,12.30
2022-10-18T03:08:31.502Z,12.30
2022-10-18T03:11:02.696Z,12.30
2022-10-18T03:13:34.590Z,12.30
2022-10-18T03:16:06.663Z,12.30
2022-10-18T03:18:38.090Z,12.30
2022-10-18T03:21:10.809Z,12.40
2022-10-18T03:23:42.694Z,12.50
2022-10-18T03:26:13.885Z,12.50
2022-10-18T03:28:45.306Z,12.50
2022-10-18T03:31:16.935Z,12.60
2022-10-18T03:33:48.377Z,12.60
2022-10-18T03:36:19.757Z,12.50
2022-10-18T03:38:51.003Z,12.60
2022-10-18T03:41:22.742Z,12.60
2022-10-18T03:43:53.926Z,12.60
2022-10-18T03:46:25.423Z,12.70
2022-10-18T03:48:56.780Z,12.70
2022-10-18T03:51:28.074Z,12.70
2022-10-18T03:53:59.473Z,12.70
2022-10-18T03:56:30.653Z,12.70
2022-10-18T03:59:02.649Z,12.80
2022-10-18T04:01:33.926Z,12.80
2022-10-18T04:04:05.341Z,12.90
2022-10-18T04:06:36.531Z,12.90
2022-10-18T04:09:10.233Z,12.80
2022-10-18T04:11:41.763Z,12.80
2022-10-18T04:14:13.212Z,12.80
2022-10-18T04:16:44.755Z,12.70
2022-10-18T04:19:16.795Z,12.70
2022-10-18T04:21:47.977Z,12.60
2022-10-18T04:24:19.382Z,12.50
2022-10-18T04:26:50.556Z,12.50
2022-10-18T04:29:21.946Z,12.50
2022-10-18T04:31:54.106Z,12.50
2022-10-18T04:34:25.523Z,12.40
2022-10-18T04:36:56.870Z,12.50
2022-10-18T04:39:28.233Z,12.50
2022-10-18T04:41:59.884Z,12.50
2022-10-18T04:44:31.191Z,12.60
2022-10-18T04:47:02.400Z,12.60
2022-10-18T04:49:34.039Z,12.60
2022-10-18T04:52:06.207Z,12.70
2022-10-18T04:54:37.913Z,12.70
2022-10-18T04:57:09.358Z,12.70
2022-10-18T04:59:40.634Z,12.80
2022-10-18T05:02:11.926Z,12.80
2022-10-18T05:04:43.140Z,12.80
2022-10-18T05:07:14.379Z,12.80
2022-10-18T05:09:45.744Z,12.70
2022-10-18T05:12:16.955Z,12.60
2022-10-18T05:14:48.191Z,12.60
2022-10-18T05:17:19.413Z,12.50
2022-10-18T05:19:50.677Z,12.50
2022-10-18T05:22:21.887Z,12.50
2022-10-18T05:24:53.812Z,12.50
2022-10-18T05:27:24.944Z,12.50
2022-10-18T05:29:58.004Z,12.50
2022-10-18T05:32:29.694Z,12.40
2022-10-18T05:35:01.664Z,12.40
2022-10-18T05:37:32.955Z,12.40
2022-10-18T05:40:04.338Z,12.40
2022-10-18T05:42:35.670Z,12.40
2022-10-18T05:45:08.909Z,12.40
2022-10-18T05:47:40.041Z,12.50
2022-10-18T05:50:12.215Z,12.40
2022-10-18T05:52:46.288Z,12.40
2022-10-18T05:55:17.656Z,12.40
2022-10-18T05:57:52.152Z,12.40
2022-10-18T06:00:23.468Z,12.50
2022-10-18T06:02:59.385Z,12.50
2022-10-18T06:05:27.942Z,12.60
2022-10-18T06:07:59.262Z,12.60
2022-10-18T06:10:30.530Z,12.60
2022-10-18T06:13:01.845Z,12.70
2022-10-18T06:15:33.331Z,12.70
2022-10-18T06:18:04.921Z,12.70
2022-10-18T06:20:36.202Z,12.70
2022-10-18T06:23:07.353Z,12.80
2022-10-18T06:25:39.199Z,12.90
2022-10-18T06:28:12.169Z,12.90
2022-10-18T06:30:43.298Z,13.00
2022-10-18T06:33:14.567Z,13.10
2022-10-18T06:35:47.262Z,13.20
2022-10-18T06:38:19.517Z,13.30
2022-10-18T06:40:50.729Z,13.40
2022-10-18T06:43:22.034Z,13.40
2022-10-18T06:45:56.071Z,13.50
2022-10-18T06:48:28.685Z,13.50
2022-10-18T06:51:02.017Z,13.50
2022-10-18T06:53:40.745Z,13.50
2022-10-18T06:56:11.254Z,13.50
2022-10-18T06:58:45.250Z,13.60
2022-10-18T07:01:18.219Z,13.60
2022-10-18T07:03:52.105Z,13.70
2022-10-18T07:06:24.781Z,13.70
2022-10-18T07:08:57.089Z,13.70
2022-10-18T07:11:28.901Z,13.80
2022-10-18T07:14:04.776Z,13.80
2022-10-18T07:16:36.753Z,13.90
2022-10-18T07:19:07.971Z,14.10
2022-10-18T07:21:39.405Z,14.10
2022-10-18T07:24:10.624Z,14.20
2022-10-18T07:26:42.479Z,14.30
2022-10-18T07:29:14.257Z,14.50
2022-10-18T07:31:45.610Z,14.50
2022-10-18T07:34:16.899Z,14.60
2022-10-18T07:36:48.345Z,14.60
2022-10-18T07:39:38.803Z,14.70
2022-10-18T07:42:10.098Z,14.80
2022-10-18T07:44:42.670Z,14.90
2022-10-18T07:47:15.023Z,15.00
2022-10-18T07:49:46.468Z,15.00
2022-10-18T07:52:19.158Z,15.00
2022-10-18T07:57:23.204Z,15.20
2022-10-18T07:59:56.389Z,15.10
2022-10-18T08:02:27.699Z,15.20
2022-10-18T08:04:58.893Z,15.20
2022-10-18T08:07:30.503Z,15.20
2022-10-18T08:10:02.101Z,15.30
2022-10-18T08:12:33.275Z,15.40
2022-10-18T08:15:04.952Z,15.50
2022-10-18T08:17:36.838Z,15.50
2022-10-18T08:20:12.435Z,15.70
2022-10-18T08:22:42.698Z,15.80
2022-10-18T08:25:13.901Z,15.90
2022-10-18T08:27:45.273Z,15.90
2022-10-18T08:30:17.585Z,16.00
2022-10-18T08:32:48.817Z,16.20
2022-10-18T08:35:20.131Z,16.20
2022-10-18T08:37:51.461Z,16.30
2022-10-18T08:40:22.810Z,16.40
2022-10-18T08:43:04.339Z,16.50
2022-10-18T08:45:43.321Z,16.50
2022-10-18T08:48:21.139Z,16.60
2022-10-18T08:50:56.925Z,16.70
2022-10-18T08:53:36.141Z,16.90
2022-10-18T08:56:10.813Z,17.00
2022-10-18T08:58:44.373Z,17.10
2022-10-18T09:01:24.248Z,17.20
2022-10-18T09:04:26.076Z,17.20
2022-10-18T09:07:04.055Z,17.20
2022-10-18T09:09:40.508Z,17.20
2022-10-18T09:12:23.620Z,17.20
2022-10-18T09:15:19.955Z,17.20
2022-10-18T09:17:59.410Z,17.30
2022-10-18T09:20:34.076Z,17.50
2022-10-18T09:23:08.469Z,17.60
2022-10-18T09:25:44.276Z,17.60
2022-10-18T09:28:22.784Z,17.70
2022-10-18T09:30:59.596Z,17.80
2022-10-18T09:33:42.097Z,17.90
2022-10-18T09:36:17.584Z,18.10
2022-10-18T09:38:52.708Z,18.10
2022-10-18T09:41:27.539Z,18.10
2022-10-18T09:44:02.205Z,18.20
2022-10-18T09:46:36.243Z,18.30
2022-10-18T09:49:14.364Z,18.30
2022-10-18T09:51:46.352Z,18.30
2022-10-18T09:54:23.522Z,18.40
2022-10-18T09:56:58.103Z,18.50
2022-10-18T09:59:40.020Z,18.60
2022-10-18T10:02:15.110Z,18.70
2022-10-18T10:04:46.826Z,18.70
2022-10-18T10:07:21.254Z,18.70
2022-10-18T10:09:58.209Z,18.80
2022-10-18T10:12:33.039Z,18.90
2022-10-18T10:15:21.013Z,19.00
2022-10-18T10:17:58.840Z,19.10
2022-10-18T10:20:34.974Z,19.10
2022-10-18T10:23:12.516Z,19.20
2022-10-18T10:25:44.490Z,19.20
2022-10-18T10:28:18.915Z,19.30
2022-10-18T10:30:50.801Z,19.30
2022-10-18T10:33:36.830Z,19.30
2022-10-18T10:36:13.455Z,19.30
2022-10-18T10:38:45.898Z,19.40
2022-10-18T10:41:23.290Z,19.40
2022-10-18T10:43:54.671Z,19.50
2022-10-18T10:46:27.348Z,19.60
2022-10-18T10:49:27.931Z,19.60
2022-10-18T10:51:36.359Z,19.70
2022-10-18T10:54:11.498Z,19.70
2022-10-18T10:56:55.736Z,19.80
2022-10-18T10:59:29.487Z,19.80
2022-10-18T11:02:21.680Z,19.80
2022-10-18T11:04:54.469Z,19.80
2022-10-18T11:07:28.932Z,19.90
2022-10-18T11:10:04.431Z,19.90
2022-10-18T11:12:39.493Z,20.00
2022-10-18T11:15:21.704Z,20.10
2022-10-18T11:18:02.795Z,20.20
2022-10-18T11:20:38.126Z,20.30
2022-10-18T11:23:12.928Z,20.30
2022-10-18T11:26:09.429Z,20.40
2022-10-18T11:28:48.227Z,20.50
2022-10-18T11:31:23.470Z,20.60
2022-10-18T11:34:09.599Z,20.60
2022-10-18T11:36:54.600Z,20.70
2022-10-18T11:39:20.577Z,21.00
2022-10-18T11:41:54.981Z,21.10
2022-10-18T11:44:30.525Z,21.20
2022-10-18T11:47:05.839Z,21.20
2022-10-18T11:49:57.334Z,21.20
2022-10-18T11:52:32.496Z,21.30
2022-10-18T11:55:12.635Z,21.40
2022-10-18T11:57:50.048Z,21.40
2022-10-18T12:00:31.950Z,21.50
2022-10-18T12:03:18.601Z,21.50
2022-10-18T12:05:52.011Z,21.60
2022-10-18T12:08:26.822Z,21.50
2022-10-18T12:11:05.478Z,21.40
2022-10-18T12:13:38.271Z,21.50
2022-10-18T12:16:11.747Z,21.40
2022-10-18T12:18:50.167Z,21.40
2022-10-18T12:21:25.933Z,21.40
2022-10-18T12:23:59.076Z,21.40
2022-10-18T12:26:33.314Z,21.40
2022-10-18T12:29:10.340Z,21.50
2022-10-18T12:31:45.876Z,21.50
2022-10-18T12:34:33.563Z,21.60
2022-10-18T12:37:34.856Z,21.80
2022-10-18T12:40:14.594Z,22.00
2022-10-18T12:42:46.943Z,22.30
2022-10-18T12:45:30.124Z,22.40
2022-10-18T12:48:02.868Z,22.60
2022-10-18T12:50:36.824Z,22.80
2022-10-18T12:53:18.381Z,22.90
2022-10-18T12:55:51.949Z,23.00
2022-10-18T12:58:32.777Z,23.10
2022-10-18T13:01:08.481Z,23.00
2022-10-18T13:03:44.940Z,22.80
2022-10-18T13:06:16.238Z,22.80
2022-10-18T13:08:48.206Z,22.70
2022-10-18T13:11:36.795Z,22.70
2022-10-18T13:15:05.711Z,22.70
2022-10-18T13:17:32.406Z,22.70
2022-10-18T13:20:25.452Z,22.60
2022-10-18T13:22:56.329Z,22.70
2022-10-18T13:25:30.801Z,22.80
2022-10-18T13:28:05.427Z,23.00
2022-10-18T13:30:44.860Z,23.20
2022-10-18T13:33:33.489Z,23.20
2022-10-18T13:36:06.951Z,23.20
2022-10-18T13:42:17.529Z,23.30
2022-10-18T13:44:48.795Z,23.20
2022-10-18T13:47:36.313Z,23.00
2022-10-18T13:50:20.904Z,22.90
2022-10-18T13:53:07.493Z,22.80
2022-10-18T13:55:48.198Z,22.90
2022-10-18T13:58:23.395Z,22.80
2022-10-18T14:01:01.934Z,22.80
2022-10-18T14:03:56.731Z,22.90
2022-10-18T14:06:17.412Z,22.90
2022-10-18T14:08:52.235Z,22.80
2022-10-18T14:11:28.123Z,22.80
2022-10-18T14:14:04.720Z,22.70
2022-10-18T14:16:39.865Z,22.70
2022-10-18T14:19:22.608Z,22.50
2022-10-18T14:21:57.477Z,22.30
2022-10-18T14:24:30.472Z,22.20
2022-10-18T14:27:22.049Z,22.00
2022-10-18T14:30:08.522Z,22.00
2022-10-18T14:32:41.688Z,21.90
2022-10-18T14:35:32.058Z,21.80
2022-10-18T14:37:56.128Z,21.70
2022-10-18T14:40:33.066Z,21.60
2022-10-18T14:43:07.443Z,21.50
2022-10-18T14:45:39.193Z,21.50
2022-10-18T14:48:20.216Z,21.40
2022-10-18T14:50:59.064Z,21.30
2022-10-18T14:53:35.106Z,21.20
2022-10-18T14:56:08.195Z,21.10
2022-10-18T14:58:41.037Z,21.00
2022-10-18T15:01:18.841Z,20.90
2022-10-18T15:03:50.800Z,20.80
2022-10-18T15:06:22.437Z,20.80
2022-10-18T15:08:57.170Z,20.70
2022-10-18T15:11:29.544Z,20.70
2022-10-18T15:14:06.507Z,20.70
2022-10-18T15:16:39.911Z,20.70
2022-10-18T15:19:28.646Z,20.70
2022-10-18T15:24:36.899Z,20.60
2022-10-18T15:27:16.075Z,20.50
2022-10-18T15:29:47.671Z,20.40
2022-10-18T15:32:23.675Z,20.30
2022-10-18T15:34:56.025Z,20.30
2022-10-18T15:37:33.852Z,20.20
2022-10-18T15:40:21.011Z,20.20
2022-10-18T15:42:54.912Z,20.10
2022-10-18T15:45:38.742Z,20.00
2022-10-18T15:48:23.589Z,19.90
2022-10-18T15:50:56.103Z,19.80
2022-10-18T15:53:45.248Z,19.80
2022-10-18T15:56:34.681Z,19.80
2022-10-18T15:59:09.148Z,19.70
2022-10-18T16:01:44.253Z,19.70
2022-10-18T16:04:19.885Z,19.50
2022-10-18T16:06:51.247Z,19.50
2022-10-18T16:09:24.567Z,19.30
2022-10-18T16:11:57.414Z,19.30
2022-10-18T16:14:29.995Z,19.20
2022-10-18T16:17:03.361Z,19.10
2022-10-18T16:19:35.494Z,19.00
2022-10-18T16:24:42.937Z,18.80
2022-10-18T16:27:14.481Z,18.60
2022-10-18T16:29:45.862Z,18.50
2022-10-18T16:32:17.264Z,18.40
2022-10-18T16:34:48.477Z,18.30
2022-10-18T16:37:20.946Z,18.20
2022-10-18T16:39:52.271Z,18.10
2022-10-18T16:42:23.494Z,18.00
2022-10-18T16:44:54.915Z,17.90
2022-10-18T16:47:26.224Z,17.80
2022-10-18T16:49:57.426Z,17.70
2022-10-18T16:52:28.617Z,17.60
2022-10-18T16:55:00.031Z,17.50
2022-10-18T16:57:31.276Z,17.40
2022-10-18T17:00:02.645Z,17.40
2022-10-18T17:02:34.182Z,17.30
2022-10-18T17:05:06.566Z,17.20
2022-10-18T17:07:38.002Z,17.20
2022-10-18T17:10:12.233Z,17.10
2022-10-18T17:12:43.601Z,17.10
2022-10-18T17:15:15.041Z,17.00
2022-10-18T17:17:47.638Z,17.10
2022-10-18T17:20:22.607Z,17.10
2022-10-18T17:22:54.159Z,17.00
2022-10-18T17:25:25.467Z,17.00
2022-10-18T17:27:56.658Z,16.90
2022-10-18T17:30:28.041Z,16.90
2022-10-18T17:32:59.490Z,16.80
2022-10-18T17:35:30.759Z,16.70
2022-10-18T17:38:02.162Z,16.60
2022-10-18T17:40:33.622Z,16.60
2022-10-18T17:43:04.873Z,16.50
2022-10-18T17:45:36.516Z,16.40
2022-10-18T17:48:07.989Z,16.40
2022-10-18T17:50:42.422Z,16.40
2022-10-18T17:53:13.838Z,16.30
2022-10-18T17:55:45.033Z,16.20
2022-10-18T17:58:16.157Z,16.10
2022-10-18T18:00:47.437Z,16.10
2022-10-18T18:03:18.868Z,16.00
2022-10-18T18:05:50.088Z,16.00
2022-10-18T18:08:22.741Z,16.00
2022-10-18T18:10:56.626Z,15.90
2022-10-18T18:13:28.240Z,15.80
2022-10-18T18:16:10.584Z,15.70
2022-10-18T18:18:41.924Z,15.70
2022-10-18T18:21:13.333Z,15.70
2022-10-18T18:23:45.004Z,15.50
2022-10-18T18:26:16.958Z,15.50
2022-10-18T18:28:48.411Z,15.50
2022-10-18T18:31:23.346Z,15.50
2022-10-18T18:33:56.350Z,15.50
2022-10-18T18:36:29.417Z,15.50
2022-10-18T18:39:01.630Z,15.50
2022-10-18T18:41:33.845Z,15.50
2022-10-18T18:44:06.758Z,15.50
2022-10-18T18:46:38.886Z,15.40
2022-10-18T18:49:10.890Z,15.40
2022-10-18T18:51:43.489Z,15.40
2022-10-18T18:54:15.953Z,15.40
2022-10-18T18:56:47.193Z,15.40
2022-10-18T18:59:20.991Z,15.30
2022-10-18T19:01:52.859Z,15.30
2022-10-18T19:04:24.868Z,15.20
2022-10-18T19:06:56.418Z,15.10
2022-10-18T19:09:27.891Z,15.00
2022-10-18T19:11:59.406Z,15.00
2022-10-18T19:14:30.907Z,14.90
2022-10-18T19:17:02.494Z,14.90
2022-10-18T19:19:34.116Z,14.90
2022-10-18T19:22:06.968Z,14.90
2022-10-18T19:24:39.319Z,14.90
2022-10-18T19:27:12.816Z,14.90
2022-10-18T19:29:46.100Z,15.00
2022-10-18T19:32:18.925Z,15.00
2022-10-18T19:34:50.220Z,15.00
2022-10-18T19:37:21.423Z,15.00
2022-10-18T19:39:52.637Z,14.90
2022-10-18T19:42:27.472Z,15.00
2022-10-18T19:44:59.264Z,15.00
2022-10-18T19:47:30.607Z,15.00
2022-10-18T19:50:02.044Z,15.00
2022-10-18T19:52:33.605Z,15.10
2022-10-18T19:55:07.222Z,15.10
2022-10-18T19:57:39.615Z,15.10
2022-10-18T20:00:17.348Z,15.10
2022-10-18T20:02:46.625Z,15.10
2022-10-18T20:05:18.301Z,15.00
2022-10-18T20:07:49.518Z,15.00
2022-10-18T20:10:21.337Z,15.00
2022-10-18T20:12:52.694Z,14.90
2022-10-18T20:15:23.969Z,14.90
2022-10-18T20:17:56.717Z,14.80
2022-10-18T20:20:29.027Z,14.70
2022-10-18T20:23:00.611Z,14.70
2022-10-18T20:25:31.845Z,14.60
2022-10-18T20:28:03.161Z,14.60
2022-10-18T20:30:34.637Z,14.50
2022-10-18T20:33:05.941Z,14.40
2022-10-18T20:35:37.220Z,14.40
2022-10-18T20:38:09.592Z,14.30
2022-10-18T20:40:40.856Z,14.20
2022-10-18T20:43:11.956Z,14.20
2022-10-18T20:45:43.114Z,14.10
2022-10-18T20:48:14.582Z,14.10
2022-10-18T20:50:45.726Z,14.10
2022-10-18T20:53:17.276Z,14.10
2022-10-18T20:55:48.083Z,14.10
2022-10-18T20:58:19.456Z,14.00
2022-10-18T21:00:50.938Z,14.00
2022-10-18T21:03:23.180Z,13.90
2022-10-18T21:05:55.631Z,13.80
2022-10-18T21:08:26.948Z,13.70
2022-10-18T21:10:59.712Z,13.70
2022-10-18T21:13:31.021Z,13.70
2022-10-18T21:16:02.811Z,13.70
2022-10-18T21:18:39.297Z,13.70
2022-10-18T21:23:44.888Z,13.70
2022-10-18T21:26:17.914Z,13.70
2022-10-18T21:28:51.535Z,13.70
2022-10-18T21:31:24.561Z,13.80
2022-10-18T21:33:57.583Z,13.90
2022-10-18T21:36:31.139Z,14.00
2022-10-18T21:39:02.829Z,14.00
2022-10-18T21:41:35.217Z,14.00
2022-10-18T21:44:10.704Z,14.00
2022-10-18T21:46:43.506Z,13.90
2022-10-18T21:49:16.110Z,13.90
2022-10-18T21:51:47.391Z,13.80
2022-10-18T21:54:18.980Z,13.80
2022-10-18T21:56:51.045Z,13.70
2022-10-18T21:59:22.886Z,13.70
2022-10-18T22:01:54.508Z,13.60
2022-10-18T22:04:27.191Z,13.60
2022-10-18T22:06:59.492Z,13.50
2022-10-18T22:09:31.177Z,13.40
2022-10-18T22:12:02.778Z,13.40
2022-10-18T22:14:34.606Z,13.40
2022-10-18T22:17:06.045Z,13.30
2022-10-18T22:19:37.809Z,13.20
2022-10-18T22:22:09.041Z,13.30
2022-10-18T22:24:40.604Z,13.20
2022-10-18T22:27:11.788Z,13.20
2022-10-18T22:29:44.730Z,13.10
2022-10-18T22:32:16.217Z,13.10
2022-10-18T22:34:47.833Z,13.10
2022-10-18T22:37:19.310Z,13.10
2022-10-18T22:39:50.703Z,13.00
2022-10-18T22:42:21.987Z,13.00
2022-10-18T22:44:53.278Z,13.00
2022-10-18T22:47:24.756Z,13.00
2022-10-18T22:49:56.130Z,13.00
2022-10-18T22:52:27.301Z,13.00
2022-10-18T22:54:58.777Z,13.00
2022-10-18T22:57:30.852Z,13.10
2022-10-18T23:00:02.125Z,13.00
2022-10-18T23:02:36.464Z,13.00
2022-10-18T23:05:09.034Z,13.00
2022-10-18T23:07:40.428Z,12.90
2022-10-18T23:10:12.343Z,12.90
2022-10-18T23:12:44.071Z,12.80
2022-10-18T23:15:15.773Z,12.70
2022-10-18T23:17:47.928Z,12.70
2022-10-18T23:20:19.378Z,12.60
2022-10-18T23:22:50.645Z,12.60
2022-10-18T23:25:21.954Z,12.60
2022-10-18T23:27:53.240Z,12.60
2022-10-18T23:30:24.517Z,12.60
2022-10-18T23:32:55.793Z,12.50
2022-10-18T23:35:28.777Z,12.50
2022-10-18T23:37:59.996Z,12.50
2022-10-18T23:40:31.246Z,12.50
2022-10-18T23:43:02.408Z,12.50
2022-10-18T23:45:34.229Z,12.50
2022-10-18T23:48:05.634Z,12.40
2022-10-18T23:50:36.906Z,12.40
2022-10-18T23:53:08.287Z,12.40
2022-10-18T23:55:40.735Z,12.30
2022-10-18T23:58:11.976Z,12.30
